sensor_id;sensor_type;location;lat;lon;timestamp;temperature;humidity
68177;DHT22;56478;50.982;7.032;2023-04-24T00:01:44;12.96;70.68
68177;DHT22;56478;50.982;7.032;2023-04-24T00:04:13;12.88;71.96
68177;DHT22;56478;50.982;7.032;2023-04-24T00:06:39;12.94;69.92
68177;DHT22;56478;50.982;7.032;2023-04-24T00:09:14;12.96;69.92
68177;DHT22;56478;50.982;7.032;2023-04-24T00:11:41;12.88;72.77
68177;DHT22;56478;50.982;7.032;2023-04-24T00:14:06;12.84;71.41
68177;DHT22;56478;50.982;7.032;2023-04-24T00:16:32;12.89;71.96
68177;DHT22;56478;50.982;7.032;2023-04-24T00:18:57;12.89;70.19
68177;DHT22;56478;50.982;7.032;2023-04-24T00:21:23;12.96;69.55
68177;DHT22;56478;50.982;7.032;2023-04-24T00:23:50;12.89;70.66
68177;DHT22;56478;50.982;7.032;2023-04-24T00:26:16;12.94;71.53
68177;DHT22;56478;50.982;7.032;2023-04-24T00:29:05;12.75;70.76
68177;DHT22;56478;50.982;7.032;2023-04-24T00:31:31;12.74;71.65
68177;DHT22;56478;50.982;7.032;2023-04-24T00:33:57;12.78;71.73
68177;DHT22;56478;50.982;7.032;2023-04-24T00:36:23;12.73;71.56
68177;DHT22;56478;50.982;7.032;2023-04-24T00:38:52;12.80;70.90
68177;DHT22;56478;50.982;7.032;2023-04-24T00:41:18;12.81;73.28
68177;DHT22;56478;50.982;7.032;2023-04-24T00:43:44;12.80;73.12
68177;DHT22;56478;50.982;7.032;2023-04-24T00:46:10;12.80;73.18
68177;DHT22;56478;50.982;7.032;2023-04-24T00:48:37;12.85;75.90
68177;DHT22;56478;50.982;7.032;2023-04-24T00:51:04;12.87;75.82
68177;DHT22;56478;50.982;7.032;2023-04-24T00:53:29;12.92;73.85
68177;DHT22;56478;50.982;7.032;2023-04-24T00:55:55;12.89;74.46
68177;DHT22;56478;50.982;7.032;2023-04-24T00:58:22;12.88;76.96
68177;DHT22;56478;50.982;7.032;2023-04-24T01:00:51;12.78;73.10
68177;DHT22;56478;50.982;7.032;2023-04-24T01:03:35;12.73;70.45
68177;DHT22;56478;50.982;7.032;2023-04-24T01:09:40;12.77;69.39
68177;DHT22;56478;50.982;7.032;2023-04-24T01:12:09;12.78;70.03
68177;DHT22;56478;50.982;7.032;2023-04-24T01:14:35;12.74;69.76
68177;DHT22;56478;50.982;7.032;2023-04-24T01:17:09;12.74;70.08
68177;DHT22;56478;50.982;7.032;2023-04-24T01:19:36;12.69;69.90
68177;DHT22;56478;50.982;7.032;2023-04-24T01:22:33;12.63;68.09
68177;DHT22;56478;50.982;7.032;2023-04-24T01:25:19;12.57;67.96
68177;DHT22;56478;50.982;7.032;2023-04-24T01:27:53;12.60;67.92
68177;DHT22;56478;50.982;7.032;2023-04-24T01:30:19;12.61;67.16
68177;DHT22;56478;50.982;7.032;2023-04-24T01:32:50;12.63;68.49
68177;DHT22;56478;50.982;7.032;2023-04-24T01:35:35;12.53;67.37
68177;DHT22;56478;50.982;7.032;2023-04-24T01:38:15;12.51;66.78
68177;DHT22;56478;50.982;7.032;2023-04-24T01:40:54;12.46;66.84
68177;DHT22;56478;50.982;7.032;2023-04-24T01:43:20;12.50;66.56
68177;DHT22;56478;50.982;7.032;2023-04-24T01:46:05;12.33;65.59
68177;DHT22;56478;50.982;7.032;2023-04-24T01:48:31;12.36;65.66
68177;DHT22;56478;50.982;7.032;2023-04-24T01:51:13;12.22;64.98
68177;DHT22;56478;50.982;7.032;2023-04-24T01:57:12;11.99;65.13
68177;DHT22;56478;50.982;7.032;2023-04-24T01:59:43;11.91;65.31
68177;DHT22;56478;50.982;7.032;2023-04-24T02:02:17;11.84;65.55
68177;DHT22;56478;50.982;7.032;2023-04-24T02:05:06;11.85;66.45
68177;DHT22;56478;50.982;7.032;2023-04-24T02:07:44;11.80;67.07
68177;DHT22;56478;50.982;7.032;2023-04-24T02:10:10;11.73;66.59
68177;DHT22;56478;50.982;7.032;2023-04-24T02:15:34;11.49;67.34
68177;DHT22;56478;50.982;7.032;2023-04-24T02:18:01;11.46;68.10
68177;DHT22;56478;50.982;7.032;2023-04-24T02:20:27;11.47;68.37
68177;DHT22;56478;50.982;7.032;2023-04-24T02:22:52;11.40;68.37
68177;DHT22;56478;50.982;7.032;2023-04-24T02:25:18;11.35;68.60
68177;DHT22;56478;50.982;7.032;2023-04-24T02:27:49;11.28;68.72
68177;DHT22;56478;50.982;7.032;2023-04-24T02:30:28;11.12;69.29
68177;DHT22;56478;50.982;7.032;2023-04-24T02:32:57;10.95;69.33
68177;DHT22;56478;50.982;7.032;2023-04-24T02:35:35;11.00;69.51
68177;DHT22;56478;50.982;7.032;2023-04-24T02:38:00;10.88;69.43
68177;DHT22;56478;50.982;7.032;2023-04-24T02:40:31;10.80;69.78
68177;DHT22;56478;50.982;7.032;2023-04-24T02:43:00;10.84;69.73
68177;DHT22;56478;50.982;7.032;2023-04-24T02:46:11;10.81;69.56
68177;DHT22;56478;50.982;7.032;2023-04-24T02:48:42;10.85;70.29
68177;DHT22;56478;50.982;7.032;2023-04-24T02:51:08;10.87;70.48
68177;DHT22;56478;50.982;7.032;2023-04-24T02:53:34;10.85;69.72
68177;DHT22;56478;50.982;7.032;2023-04-24T02:56:05;10.87;69.79
68177;DHT22;56478;50.982;7.032;2023-04-24T02:58:31;10.91;69.94
68177;DHT22;56478;50.982;7.032;2023-04-24T03:01:03;10.97;69.60
68177;DHT22;56478;50.982;7.032;2023-04-24T03:07:03;11.08;70.44
68177;DHT22;56478;50.982;7.032;2023-04-24T03:09:29;11.11;69.99
68177;DHT22;56478;50.982;7.032;2023-04-24T03:15:11;11.15;68.44
68177;DHT22;56478;50.982;7.032;2023-04-24T03:17:37;11.16;69.28
68177;DHT22;56478;50.982;7.032;2023-04-24T03:20:32;11.16;69.07
68177;DHT22;56478;50.982;7.032;2023-04-24T03:23:20;11.12;68.73
68177;DHT22;56478;50.982;7.032;2023-04-24T03:26:17;11.00;69.07
68177;DHT22;56478;50.982;7.032;2023-04-24T03:29:17;11.07;68.70
68177;DHT22;56478;50.982;7.032;2023-04-24T03:32:12;11.07;69.15
68177;DHT22;56478;50.982;7.032;2023-04-24T03:37:40;11.07;69.20
68177;DHT22;56478;50.982;7.032;2023-04-24T03:40:09;11.11;68.48
68177;DHT22;56478;50.982;7.032;2023-04-24T03:42:34;11.19;69.15
68177;DHT22;56478;50.982;7.032;2023-04-24T03:45:10;11.12;69.01
68177;DHT22;56478;50.982;7.032;2023-04-24T03:47:36;11.20;68.79
68177;DHT22;56478;50.982;7.032;2023-04-24T03:57:21;10.91;68.34
68177;DHT22;56478;50.982;7.032;2023-04-24T03:59:50;10.92;68.36
68177;DHT22;56478;50.982;7.032;2023-04-24T04:02:21;11.04;69.27
68177;DHT22;56478;50.982;7.032;2023-04-24T04:05:07;11.01;68.20
68177;DHT22;56478;50.982;7.032;2023-04-24T04:07:38;11.15;67.69
68177;DHT22;56478;50.982;7.032;2023-04-24T04:10:05;11.15;67.61
68177;DHT22;56478;50.982;7.032;2023-04-24T04:12:32;11.15;69.31
68177;DHT22;56478;50.982;7.032;2023-04-24T04:15:01;11.14;68.06
68177;DHT22;56478;50.982;7.032;2023-04-24T04:17:31;11.09;67.23
68177;DHT22;56478;50.982;7.032;2023-04-24T04:19:57;11.05;67.47
68177;DHT22;56478;50.982;7.032;2023-04-24T04:22:22;11.05;67.54
68177;DHT22;56478;50.982;7.032;2023-04-24T04:24:48;11.00;68.14
68177;DHT22;56478;50.982;7.032;2023-04-24T04:27:16;11.09;68.28
68177;DHT22;56478;50.982;7.032;2023-04-24T04:29:44;11.16;68.72
68177;DHT22;56478;50.982;7.032;2023-04-24T04:32:09;11.04;68.18
68177;DHT22;56478;50.982;7.032;2023-04-24T04:34:35;11.07;67.98
68177;DHT22;56478;50.982;7.032;2023-04-24T04:37:03;11.09;67.55
68177;DHT22;56478;50.982;7.032;2023-04-24T04:39:31;11.02;67.95
68177;DHT22;56478;50.982;7.032;2023-04-24T04:41:57;11.02;68.11
68177;DHT22;56478;50.982;7.032;2023-04-24T04:44:23;11.01;69.39
68177;DHT22;56478;50.982;7.032;2023-04-24T04:46:49;11.05;67.88
68177;DHT22;56478;50.982;7.032;2023-04-24T04:49:18;10.98;68.48
68177;DHT22;56478;50.982;7.032;2023-04-24T04:51:49;10.98;68.12
68177;DHT22;56478;50.982;7.032;2023-04-24T04:54:16;10.94;68.47
68177;DHT22;56478;50.982;7.032;2023-04-24T04:56:41;10.92;68.46
68177;DHT22;56478;50.982;7.032;2023-04-24T04:59:07;10.92;69.30
68177;DHT22;56478;50.982;7.032;2023-04-24T05:01:33;11.01;68.94
68177;DHT22;56478;50.982;7.032;2023-04-24T05:03:58;10.92;68.76
68177;DHT22;56478;50.982;7.032;2023-04-24T05:06:24;10.94;68.95
68177;DHT22;56478;50.982;7.032;2023-04-24T05:08:50;10.92;68.31
68177;DHT22;56478;50.982;7.032;2023-04-24T05:11:16;10.95;68.29
68177;DHT22;56478;50.982;7.032;2023-04-24T05:13:51;10.98;68.74
68177;DHT22;56478;50.982;7.032;2023-04-24T05:16:27;11.00;68.64
68177;DHT22;56478;50.982;7.032;2023-04-24T05:19:01;11.07;69.50
68177;DHT22;56478;50.982;7.032;2023-04-24T05:21:30;11.07;70.57
68177;DHT22;56478;50.982;7.032;2023-04-24T05:24:11;11.09;70.65
68177;DHT22;56478;50.982;7.032;2023-04-24T05:26:56;11.05;68.84
68177;DHT22;56478;50.982;7.032;2023-04-24T05:29:22;11.11;69.66
68177;DHT22;56478;50.982;7.032;2023-04-24T05:31:47;11.02;69.34
68177;DHT22;56478;50.982;7.032;2023-04-24T05:34:13;11.00;69.06
68177;DHT22;56478;50.982;7.032;2023-04-24T05:36:39;10.98;70.72
68177;DHT22;56478;50.982;7.032;2023-04-24T05:39:05;11.08;69.54
68177;DHT22;56478;50.982;7.032;2023-04-24T05:41:30;11.09;69.24
68177;DHT22;56478;50.982;7.032;2023-04-24T05:43:56;11.18;68.66
68177;DHT22;56478;50.982;7.032;2023-04-24T05:46:21;11.15;70.68
68177;DHT22;56478;50.982;7.032;2023-04-24T05:48:47;11.15;69.76
68177;DHT22;56478;50.982;7.032;2023-04-24T05:51:12;11.09;71.67
68177;DHT22;56478;50.982;7.032;2023-04-24T05:53:38;10.98;73.19
68177;DHT22;56478;50.982;7.032;2023-04-24T05:56:04;10.97;73.41
68177;DHT22;56478;50.982;7.032;2023-04-24T05:58:29;10.88;73.23
68177;DHT22;56478;50.982;7.032;2023-04-24T06:00:58;10.85;75.10
68177;DHT22;56478;50.982;7.032;2023-04-24T06:03:32;10.90;74.22
68177;DHT22;56478;50.982;7.032;2023-04-24T06:05:58;10.78;74.68
68177;DHT22;56478;50.982;7.032;2023-04-24T06:08:24;10.85;74.90
68177;DHT22;56478;50.982;7.032;2023-04-24T06:10:49;10.81;74.76
68177;DHT22;56478;50.982;7.032;2023-04-24T06:13:15;10.92;75.21
68177;DHT22;56478;50.982;7.032;2023-04-24T06:15:41;10.91;74.21
68177;DHT22;56478;50.982;7.032;2023-04-24T06:18:07;10.84;74.95
68177;DHT22;56478;50.982;7.032;2023-04-24T06:20:59;10.87;74.28
68177;DHT22;56478;50.982;7.032;2023-04-24T06:23:44;10.85;74.10
68177;DHT22;56478;50.982;7.032;2023-04-24T06:26:18;10.74;74.31
68177;DHT22;56478;50.982;7.032;2023-04-24T06:28:47;10.63;75.20
68177;DHT22;56478;50.982;7.032;2023-04-24T06:31:19;10.61;75.24
68177;DHT22;56478;50.982;7.032;2023-04-24T06:33:48;10.68;75.35
68177;DHT22;56478;50.982;7.032;2023-04-24T06:36:15;10.70;76.62
68177;DHT22;56478;50.982;7.032;2023-04-24T06:38:44;10.77;76.21
68177;DHT22;56478;50.982;7.032;2023-04-24T06:41:10;10.80;77.20
68177;DHT22;56478;50.982;7.032;2023-04-24T06:43:36;10.80;75.48
68177;DHT22;56478;50.982;7.032;2023-04-24T06:46:01;10.61;75.39
68177;DHT22;56478;50.982;7.032;2023-04-24T06:48:30;10.60;75.11
68177;DHT22;56478;50.982;7.032;2023-04-24T06:50:55;10.55;76.88
68177;DHT22;56478;50.982;7.032;2023-04-24T06:53:21;10.56;77.42
68177;DHT22;56478;50.982;7.032;2023-04-24T06:55:47;10.39;77.70
68177;DHT22;56478;50.982;7.032;2023-04-24T06:58:15;10.40;78.50
68177;DHT22;56478;50.982;7.032;2023-04-24T07:00:49;10.42;77.70
68177;DHT22;56478;50.982;7.032;2023-04-24T07:03:55;10.26;78.92
68177;DHT22;56478;50.982;7.032;2023-04-24T07:09:19;10.29;79.20
68177;DHT22;56478;50.982;7.032;2023-04-24T07:14:45;10.35;80.88
68177;DHT22;56478;50.982;7.032;2023-04-24T07:17:26;10.29;80.92
68177;DHT22;56478;50.982;7.032;2023-04-24T07:23:25;10.33;80.12
68177;DHT22;56478;50.982;7.032;2023-04-24T07:25:51;10.26;79.95
68177;DHT22;56478;50.982;7.032;2023-04-24T07:28:19;10.31;81.28
68177;DHT22;56478;50.982;7.032;2023-04-24T07:30:50;10.28;80.15
68177;DHT22;56478;50.982;7.032;2023-04-24T07:33:15;10.09;81.34
68177;DHT22;56478;50.982;7.032;2023-04-24T07:35:46;10.05;82.34
68177;DHT22;56478;50.982;7.032;2023-04-24T07:38:12;9.98;81.93
68177;DHT22;56478;50.982;7.032;2023-04-24T07:40:38;9.94;82.01
68177;DHT22;56478;50.982;7.032;2023-04-24T07:43:03;9.91;83.21
68177;DHT22;56478;50.982;7.032;2023-04-24T07:45:29;9.93;83.67
68177;DHT22;56478;50.982;7.032;2023-04-24T07:47:56;9.97;83.12
68177;DHT22;56478;50.982;7.032;2023-04-24T07:50:22;9.77;82.03
68177;DHT22;56478;50.982;7.032;2023-04-24T07:52:50;9.76;82.65
68177;DHT22;56478;50.982;7.032;2023-04-24T07:55:16;9.76;82.30
68177;DHT22;56478;50.982;7.032;2023-04-24T07:57:47;9.66;81.48
68177;DHT22;56478;50.982;7.032;2023-04-24T08:00:16;9.62;82.24
68177;DHT22;56478;50.982;7.032;2023-04-24T08:02:50;9.60;82.88
68177;DHT22;56478;50.982;7.032;2023-04-24T08:05:16;9.38;83.08
68177;DHT22;56478;50.982;7.032;2023-04-24T08:07:42;9.35;82.57
68177;DHT22;56478;50.982;7.032;2023-04-24T08:10:29;9.40;83.88
68177;DHT22;56478;50.982;7.032;2023-04-24T08:12:54;9.28;82.41
68177;DHT22;56478;50.982;7.032;2023-04-24T08:15:20;9.31;83.18
68177;DHT22;56478;50.982;7.032;2023-04-24T08:17:46;9.22;82.87
68177;DHT22;56478;50.982;7.032;2023-04-24T08:20:20;9.14;82.79
68177;DHT22;56478;50.982;7.032;2023-04-24T08:22:55;9.11;83.04
68177;DHT22;56478;50.982;7.032;2023-04-24T08:25:21;9.18;83.37
68177;DHT22;56478;50.982;7.032;2023-04-24T08:27:48;9.08;83.54
68177;DHT22;56478;50.982;7.032;2023-04-24T08:30:19;9.00;82.71
68177;DHT22;56478;50.982;7.032;2023-04-24T08:32:56;9.01;82.85
68177;DHT22;56478;50.982;7.032;2023-04-24T08:35:39;9.01;83.62
68177;DHT22;56478;50.982;7.032;2023-04-24T08:38:15;8.94;83.04
68177;DHT22;56478;50.982;7.032;2023-04-24T08:40:42;8.88;83.44
68177;DHT22;56478;50.982;7.032;2023-04-24T08:43:18;8.87;84.15
68177;DHT22;56478;50.982;7.032;2023-04-24T08:45:46;8.84;83.61
68177;DHT22;56478;50.982;7.032;2023-04-24T08:48:16;8.81;83.76
68177;DHT22;56478;50.982;7.032;2023-04-24T08:50:45;8.80;82.45
68177;DHT22;56478;50.982;7.032;2023-04-24T08:53:10;8.87;83.85
68177;DHT22;56478;50.982;7.032;2023-04-24T08:55:40;8.83;84.14
68177;DHT22;56478;50.982;7.032;2023-04-24T08:58:07;8.76;83.51
68177;DHT22;56478;50.982;7.032;2023-04-24T09:00:36;8.79;83.91
68177;DHT22;56478;50.982;7.032;2023-04-24T09:03:05;8.76;83.86
68177;DHT22;56478;50.982;7.032;2023-04-24T09:05:35;8.96;84.38
68177;DHT22;56478;50.982;7.032;2023-04-24T09:08:02;8.88;83.99
68177;DHT22;56478;50.982;7.032;2023-04-24T09:10:34;8.97;84.75
68177;DHT22;56478;50.982;7.032;2023-04-24T09:13:00;9.00;84.44
68177;DHT22;56478;50.982;7.032;2023-04-24T09:15:27;9.08;84.64
68177;DHT22;56478;50.982;7.032;2023-04-24T09:17:53;9.04;84.47
68177;DHT22;56478;50.982;7.032;2023-04-24T09:20:19;9.11;84.70
68177;DHT22;56478;50.982;7.032;2023-04-24T09:22:45;9.11;84.53
68177;DHT22;56478;50.982;7.032;2023-04-24T09:25:10;9.25;84.70
68177;DHT22;56478;50.982;7.032;2023-04-24T09:27:43;9.21;84.74
68177;DHT22;56478;50.982;7.032;2023-04-24T09:30:13;9.11;84.65
68177;DHT22;56478;50.982;7.032;2023-04-24T09:32:40;9.15;84.08
68177;DHT22;56478;50.982;7.032;2023-04-24T09:35:14;9.26;84.17
68177;DHT22;56478;50.982;7.032;2023-04-24T09:37:43;9.24;84.82
68177;DHT22;56478;50.982;7.032;2023-04-24T09:40:18;9.34;84.07
68177;DHT22;56478;50.982;7.032;2023-04-24T09:42:46;9.39;84.83
68177;DHT22;56478;50.982;7.032;2023-04-24T09:45:16;9.53;83.97
68177;DHT22;56478;50.982;7.032;2023-04-24T09:47:41;9.50;83.68
68177;DHT22;56478;50.982;7.032;2023-04-24T10:07:21;10.04;84.59
68177;DHT22;56478;50.982;7.032;2023-04-24T10:09:55;10.09;84.09
68177;DHT22;56478;50.982;7.032;2023-04-24T10:13:07;10.11;84.37
68177;DHT22;56478;50.982;7.032;2023-04-24T10:19:16;10.35;84.20
68177;DHT22;56478;50.982;7.032;2023-04-24T10:21:44;10.40;84.31
68177;DHT22;56478;50.982;7.032;2023-04-24T10:24:13;10.64;83.90
68177;DHT22;56478;50.982;7.032;2023-04-24T10:26:40;10.77;82.89
68177;DHT22;56478;50.982;7.032;2023-04-24T10:29:21;10.98;81.96
68177;DHT22;56478;50.982;7.032;2023-04-24T10:31:47;11.07;82.08
68177;DHT22;56478;50.982;7.032;2023-04-24T10:34:14;11.26;82.47
68177;DHT22;56478;50.982;7.032;2023-04-24T10:36:46;11.37;80.83
68177;DHT22;56478;50.982;7.032;2023-04-24T10:39:14;11.53;80.29
68177;DHT22;56478;50.982;7.032;2023-04-24T10:41:40;11.47;80.36
68177;DHT22;56478;50.982;7.032;2023-04-24T10:44:11;11.37;80.43
68177;DHT22;56478;50.982;7.032;2023-04-24T10:46:38;11.02;79.13
68177;DHT22;56478;50.982;7.032;2023-04-24T10:49:07;11.19;80.67
68177;DHT22;56478;50.982;7.032;2023-04-24T10:51:50;11.05;80.87
68177;DHT22;56478;50.982;7.032;2023-04-24T10:54:29;10.88;81.04
68177;DHT22;56478;50.982;7.032;2023-04-24T10:59:46;10.92;81.58
68177;DHT22;56478;50.982;7.032;2023-04-24T11:02:41;10.66;81.63
68177;DHT22;56478;50.982;7.032;2023-04-24T11:12:37;10.38;82.53
68177;DHT22;56478;50.982;7.032;2023-04-24T11:15:15;10.43;82.41
68177;DHT22;56478;50.982;7.032;2023-04-24T11:17:45;10.35;81.77
68177;DHT22;56478;50.982;7.032;2023-04-24T11:20:15;10.35;83.08
68177;DHT22;56478;50.982;7.032;2023-04-24T11:22:41;10.28;83.13
68177;DHT22;56478;50.982;7.032;2023-04-24T11:25:08;10.29;82.49
68177;DHT22;56478;50.982;7.032;2023-04-24T11:27:41;10.45;83.35
68177;DHT22;56478;50.982;7.032;2023-04-24T11:30:11;10.64;81.78
68177;DHT22;56478;50.982;7.032;2023-04-24T11:32:41;11.04;81.11
68177;DHT22;56478;50.982;7.032;2023-04-24T11:35:22;11.47;79.55
68177;DHT22;56478;50.982;7.032;2023-04-24T11:37:52;11.89;78.85
68177;DHT22;56478;50.982;7.032;2023-04-24T11:40:19;12.26;77.94
68177;DHT22;56478;50.982;7.032;2023-04-24T11:42:46;12.43;78.07
68177;DHT22;56478;50.982;7.032;2023-04-24T11:45:16;12.57;76.12
68177;DHT22;56478;50.982;7.032;2023-04-24T11:47:43;12.44;74.31
68177;DHT22;56478;50.982;7.032;2023-04-24T11:50:11;12.09;77.28
68177;DHT22;56478;50.982;7.032;2023-04-24T11:52:42;11.91;77.69
68177;DHT22;56478;50.982;7.032;2023-04-24T11:57:42;11.54;78.45
68177;DHT22;56478;50.982;7.032;2023-04-24T12:02:41;11.56;80.63
68177;DHT22;56478;50.982;7.032;2023-04-24T12:05:07;11.42;80.76
68177;DHT22;56478;50.982;7.032;2023-04-24T12:07:43;11.54;79.72
68177;DHT22;56478;50.982;7.032;2023-04-24T12:10:09;11.91;81.14
68177;DHT22;56478;50.982;7.032;2023-04-24T12:12:35;12.21;79.47
68177;DHT22;56478;50.982;7.032;2023-04-24T12:15:01;12.23;79.03
68177;DHT22;56478;50.982;7.032;2023-04-24T12:17:28;12.26;78.77
68177;DHT22;56478;50.982;7.032;2023-04-24T12:20:03;12.19;77.88
68177;DHT22;56478;50.982;7.032;2023-04-24T12:22:50;12.01;78.23
68177;DHT22;56478;50.982;7.032;2023-04-24T12:25:24;12.09;77.95
68177;DHT22;56478;50.982;7.032;2023-04-24T12:27:55;11.98;79.80
68177;DHT22;56478;50.982;7.032;2023-04-24T12:30:25;11.81;77.41
68177;DHT22;56478;50.982;7.032;2023-04-24T12:32:51;12.15;78.56
68177;DHT22;56478;50.982;7.032;2023-04-24T12:35:22;12.34;77.27
68177;DHT22;56478;50.982;7.032;2023-04-24T12:37:48;12.77;77.40
68177;DHT22;56478;50.982;7.032;2023-04-24T12:40:15;13.08;75.15
68177;DHT22;56478;50.982;7.032;2023-04-24T12:42:46;13.37;74.06
68177;DHT22;56478;50.982;7.032;2023-04-24T12:45:12;13.88;73.77
68177;DHT22;56478;50.982;7.032;2023-04-24T12:47:39;14.25;72.07
68177;DHT22;56478;50.982;7.032;2023-04-24T12:50:09;14.52;68.88
68177;DHT22;56478;50.982;7.032;2023-04-24T12:52:36;14.09;70.09
68177;DHT22;56478;50.982;7.032;2023-04-24T12:55:01;13.79;69.73
68177;DHT22;56478;50.982;7.032;2023-04-24T12:57:29;13.74;70.21
68177;DHT22;56478;50.982;7.032;2023-04-24T12:59:57;13.53;70.48
68177;DHT22;56478;50.982;7.032;2023-04-24T13:02:23;13.40;72.50
68177;DHT22;56478;50.982;7.032;2023-04-24T13:04:50;13.47;69.63
68177;DHT22;56478;50.982;7.032;2023-04-24T13:07:16;13.43;69.66
68177;DHT22;56478;50.982;7.032;2023-04-24T13:09:42;13.46;69.54
68177;DHT22;56478;50.982;7.032;2023-04-24T13:12:09;13.44;67.80
68177;DHT22;56478;50.982;7.032;2023-04-24T13:14:35;13.44;67.37
68177;DHT22;56478;50.982;7.032;2023-04-24T13:17:01;14.13;68.16
68177;DHT22;56478;50.982;7.032;2023-04-24T13:19:28;14.17;67.82
68177;DHT22;56478;50.982;7.032;2023-04-24T13:21:55;14.08;67.02
68177;DHT22;56478;50.982;7.032;2023-04-24T13:24:24;14.17;65.08
68177;DHT22;56478;50.982;7.032;2023-04-24T13:26:53;13.98;68.39
68177;DHT22;56478;50.982;7.032;2023-04-24T13:29:19;13.86;66.87
68177;DHT22;56478;50.982;7.032;2023-04-24T13:31:51;13.94;67.21
68177;DHT22;56478;50.982;7.032;2023-04-24T13:34:17;13.98;65.61
68177;DHT22;56478;50.982;7.032;2023-04-24T13:36:43;13.88;64.14
68177;DHT22;56478;50.982;7.032;2023-04-24T13:39:10;13.99;63.24
68177;DHT22;56478;50.982;7.032;2023-04-24T13:41:36;14.33;61.36
68177;DHT22;56478;50.982;7.032;2023-04-24T13:44:03;14.43;63.15
68177;DHT22;56478;50.982;7.032;2023-04-24T13:46:29;14.64;61.07
68177;DHT22;56478;50.982;7.032;2023-04-24T13:48:55;14.61;62.55
68177;DHT22;56478;50.982;7.032;2023-04-24T13:51:21;14.72;64.52
68177;DHT22;56478;50.982;7.032;2023-04-24T13:53:53;14.47;62.71
68177;DHT22;56478;50.982;7.032;2023-04-24T13:56:18;14.40;63.19
68177;DHT22;56478;50.982;7.032;2023-04-24T13:58:45;14.29;61.68
68177;DHT22;56478;50.982;7.032;2023-04-24T14:01:11;14.04;62.97
68177;DHT22;56478;50.982;7.032;2023-04-24T14:03:42;13.86;62.93
68177;DHT22;56478;50.982;7.032;2023-04-24T14:06:10;13.65;62.76
68177;DHT22;56478;50.982;7.032;2023-04-24T14:08:36;13.33;64.84
68177;DHT22;56478;50.982;7.032;2023-04-24T14:11:02;13.53;63.89
68177;DHT22;56478;50.982;7.032;2023-04-24T14:13:28;13.75;64.03
68177;DHT22;56478;50.982;7.032;2023-04-24T14:15:54;14.19;62.71
68177;DHT22;56478;50.982;7.032;2023-04-24T14:18:20;14.44;61.71
68177;DHT22;56478;50.982;7.032;2023-04-24T14:20:46;14.36;60.97
68177;DHT22;56478;50.982;7.032;2023-04-24T14:23:11;14.37;64.22
68177;DHT22;56478;50.982;7.032;2023-04-24T14:25:37;14.51;61.54
68177;DHT22;56478;50.982;7.032;2023-04-24T14:28:03;14.38;60.99
68177;DHT22;56478;50.982;7.032;2023-04-24T14:30:28;14.08;60.13
68177;DHT22;56478;50.982;7.032;2023-04-24T14:32:54;13.81;61.21
68177;DHT22;56478;50.982;7.032;2023-04-24T14:35:19;13.75;60.26
68177;DHT22;56478;50.982;7.032;2023-04-24T14:37:45;13.77;58.59
68177;DHT22;56478;50.982;7.032;2023-04-24T14:40:11;14.04;60.86
68177;DHT22;56478;50.982;7.032;2023-04-24T14:42:37;14.38;59.21
68177;DHT22;56478;50.982;7.032;2023-04-24T14:45:03;14.26;58.06
68177;DHT22;56478;50.982;7.032;2023-04-24T14:47:29;14.26;59.39
68177;DHT22;56478;50.982;7.032;2023-04-24T16:14:45;13.61;57.06
68177;DHT22;56478;50.982;7.032;2023-04-24T16:21:29;13.44;58.18
68177;DHT22;56478;50.982;7.032;2023-04-24T16:24:14;13.47;59.08
68177;DHT22;56478;50.982;7.032;2023-04-24T16:30:45;13.37;59.80
68177;DHT22;56478;50.982;7.032;2023-04-24T16:33:19;13.47;59.75
68177;DHT22;56478;50.982;7.032;2023-04-24T16:35:44;13.50;59.25
68177;DHT22;56478;50.982;7.032;2023-04-24T16:38:10;13.44;60.49
68177;DHT22;56478;50.982;7.032;2023-04-24T16:40:48;13.30;59.51
68177;DHT22;56478;50.982;7.032;2023-04-24T16:43:20;13.24;62.49
68177;DHT22;56478;50.982;7.032;2023-04-24T16:45:48;13.23;61.23
68177;DHT22;56478;50.982;7.032;2023-04-24T16:48:20;13.32;60.68
68177;DHT22;56478;50.982;7.032;2023-04-24T16:50:46;13.43;65.31
68177;DHT22;56478;50.982;7.032;2023-04-24T16:53:14;13.42;62.46
68177;DHT22;56478;50.982;7.032;2023-04-24T16:55:40;13.44;61.54
68177;DHT22;56478;50.982;7.032;2023-04-24T16:58:05;13.46;58.90
68177;DHT22;56478;50.982;7.032;2023-04-24T17:00:34;13.29;60.24
68177;DHT22;56478;50.982;7.032;2023-04-24T17:03:03;13.11;59.14
68177;DHT22;56478;50.982;7.032;2023-04-24T17:05:28;13.11;59.22
68177;DHT22;56478;50.982;7.032;2023-04-24T17:07:54;13.18;58.89
68177;DHT22;56478;50.982;7.032;2023-04-24T17:10:33;13.13;63.28
68177;DHT22;56478;50.982;7.032;2023-04-24T17:13:02;13.02;59.18
68177;DHT22;56478;50.982;7.032;2023-04-24T17:15:51;13.03;57.51
68177;DHT22;56478;50.982;7.032;2023-04-24T17:18:19;13.11;58.02
68177;DHT22;56478;50.982;7.032;2023-04-24T17:20:48;13.15;56.86
68177;DHT22;56478;50.982;7.032;2023-04-24T17:26:22;12.92;58.14
68177;DHT22;56478;50.982;7.032;2023-04-24T17:28:53;12.91;57.52
68177;DHT22;56478;50.982;7.032;2023-04-24T17:31:24;12.73;57.96
68177;DHT22;56478;50.982;7.032;2023-04-24T17:33:53;12.71;61.71
68177;DHT22;56478;50.982;7.032;2023-04-24T17:36:27;12.69;60.13
68177;DHT22;56478;50.982;7.032;2023-04-24T17:38:55;12.69;60.31
68177;DHT22;56478;50.982;7.032;2023-04-24T17:41:24;12.74;64.77
68177;DHT22;56478;50.982;7.032;2023-04-24T17:43:50;12.74;65.38
68177;DHT22;56478;50.982;7.032;2023-04-24T17:46:18;12.81;65.69
68177;DHT22;56478;50.982;7.032;2023-04-24T17:48:44;12.73;60.19
68177;DHT22;56478;50.982;7.032;2023-04-24T17:51:10;12.71;60.02
68177;DHT22;56478;50.982;7.032;2023-04-24T17:53:39;12.56;60.33
68177;DHT22;56478;50.982;7.032;2023-04-24T20:40:37;9.98;71.00
68177;DHT22;56478;50.982;7.032;2023-04-24T20:43:21;9.99;73.16
68177;DHT22;56478;50.982;7.032;2023-04-24T20:46:22;9.90;71.77
68177;DHT22;56478;50.982;7.032;2023-04-24T20:49:11;9.87;71.47
68177;DHT22;56478;50.982;7.032;2023-04-24T20:51:45;9.83;74.09
68177;DHT22;56478;50.982;7.032;2023-04-24T20:54:36;9.74;74.22
